Time;durP1;ratioP1;P1;durP2;ratioP2;P2;SDS_P1;SDS_P2;PMS_P1;PMS_P2;Temp;Humidity;BMP_temperature;BMP_pressure;BME280_temperature;BME280_humidity;BME280_pressure;Samples;Min_cycle;Max_cycle;Signal;HPM_P1;HPM_P2
2022/10/22 00:01:32;;;;;;;;;;;;;;;;;;4940802;29;20379;-85
2022/10/22 00:03:58;;;;;;;;;;;;;;;;;;4940545;29;19923;-83
2022/10/22 00:06:25;;;;;;;;;;;;;;;;;;4942107;29;19965;-84
2022/10/22 00:08:50;;;;;;;;;;;;;;;;;;4939439;29;19923;-86
2022/10/22 00:11:17;;;;;;;;;;;;;;;;;;4938097;29;20453;-88
2022/10/22 00:13:43;;;;;;;;;;;;;;;;;;4938353;29;19962;-85
2022/10/22 00:16:08;;;;;;;;;;;;;;;;;;4937652;29;19997;-86
2022/10/22 00:18:34;;;;;;;;;;;;;;;;;;4938176;29;19942;-84
2022/10/22 00:21:00;;;;;;;;;;;;;;;;;;4942765;29;19946;-84
2022/10/22 00:23:25;;;;;;;;;;;;;;;;;;4938000;29;19926;-85
2022/10/22 00:25:52;;;;;;;;;;;;;;;;;;4939231;29;19974;-85
2022/10/22 00:28:17;;;;;;;;;;;;;;;;;;4939334;29;19982;-86
2022/10/22 00:30:43;;;;;;;;;;;;;;;;;;4939276;29;20374;-87
2022/10/22 00:33:08;;;;;;;;;;;;;;;;;;4938258;29;19919;-87
2022/10/22 00:35:33;;;;;;;;;;;;;;;;;;4938815;29;19919;-87
2022/10/22 00:37:59;;;;;;;;;;;;;;;;;;4939227;29;19926;-87
2022/10/22 00:40:24;;;;;;;;;;;;;;;;;;4922907;29;19926;-86
2022/10/22 00:42:50;;;;;;;;;;;;;;;;;;4942485;29;19946;-87
2022/10/22 00:45:20;;;;;;;;;;;;;;;;;;4941087;29;20291;-86
2022/10/22 00:47:46;;;;;;;;;;;;;;;;;;4940961;29;19915;-90
2022/10/22 00:50:17;;;;;;;;;;;;;;;;;;4939401;29;19919;-92
2022/10/22 00:52:45;;;;;;;;;;;;;;;;;;4943605;29;19966;-87
2022/10/22 00:55:11;;;;;;;;;;;;;;;;;;4943368;29;19929;-87
2022/10/22 00:57:39;;;;;;;;;;;;;;;;;;4943577;29;19927;-86
2022/10/22 01:00:08;;;;;;;;;;;;;;;;;;4940505;29;19919;-90
2022/10/22 01:02:33;;;;;;;;;;;;;;;;;;4938781;29;19927;-89
2022/10/22 01:04:58;;;;;;;;;;;;;;;;;;4939420;29;19923;-86
2022/10/22 01:07:24;;;;;;;;;;;;;;;;;;4938292;29;19923;-92
2022/10/22 01:10:13;;;;;;;;;;;;;;;;;;4937351;29;19930;-92
2022/10/22 01:12:42;;;;;;;;;;;;;;;;;;4937773;29;20073;-85
2022/10/22 01:15:26;;;;;;;;;;;;;;;;;;4940525;29;19926;-84
2022/10/22 01:17:54;;;;;;;;;;;;;;;;;;4940353;29;19919;-85
2022/10/22 01:20:29;;;;;;;;;;;;;;;;;;4940170;29;20013;-86
2022/10/22 01:22:57;;;;;;;;;;;;;;;;;;4940435;29;19918;-83
2022/10/22 01:25:29;;;;;;;;;;;;;;;;;;4940340;29;19918;-84
2022/10/22 01:28:04;;;;;;;;;;;;;;;;;;4940670;29;20009;-84
2022/10/22 01:30:29;;;;;;;;;;;;;;;;;;4940519;29;19922;-84
2022/10/22 01:32:57;;;;;;;;;;;;;;;;;;4940300;29;19918;-84
2022/10/22 01:35:26;;;;;;;;;;;;;;;;;;4940173;29;19919;-84
2022/10/22 01:37:53;;;;;;;;;;;;;;;;;;4940511;29;19919;-84
2022/10/22 01:40:20;;;;;;;;;;;;;;;;;;4938809;29;20279;-84
2022/10/22 01:43:02;;;;;;;;;;;;;;;;;;4938758;29;19958;-84
2022/10/22 01:45:31;;;;;;;;;;;;;;;;;;4940061;29;19958;-83
2022/10/22 01:48:06;;;;;;;;;;;;;;;;;;4939998;29;19926;-86
2022/10/22 01:50:44;;;;;;;;;;;;;;;;;;4940148;29;20433;-84
2022/10/22 01:53:28;;;;;;;;;;;;;;;;;;4947551;29;19930;-84
2022/10/22 01:56:12;;;;;;;;;;;;;;;;;;4954678;29;19918;-84
2022/10/22 01:58:37;;;;;;;;;;;;;;;;;;4970951;29;19918;-85
2022/10/22 02:01:25;;;;;;;;;;;;;;;;;;4968677;29;19922;-84
2022/10/22 02:03:53;;;;;;;;;;;;;;;;;;4968512;29;19918;-85
2022/10/22 02:06:20;;;;;;;;;;;;;;;;;;4951345;29;19919;-85
2022/10/22 02:08:47;;;;;;;;;;;;;;;;;;4949945;29;20002;-86
2022/10/22 02:11:14;;;;;;;;;;;;;;;;;;4948889;29;20366;-87
2022/10/22 02:13:41;;;;;;;;;;;;;;;;;;4964732;29;19918;-87
2022/10/22 02:16:09;;;;;;;;;;;;;;;;;;4944625;29;20396;-86
2022/10/22 02:18:37;;;;;;;;;;;;;;;;;;4946798;29;19918;-84
2022/10/22 02:21:03;;;;;;;;;;;;;;;;;;4948100;29;19946;-86
2022/10/22 02:23:28;;;;;;;;;;;;;;;;;;4946610;28;19919;-86
2022/10/22 02:26:06;;;;;;;;;;;;;;;;;;4961382;29;19918;-86
2022/10/22 02:28:36;;;;;;;;;;;;;;;;;;4942811;29;19919;-89
2022/10/22 02:31:07;;;;;;;;;;;;;;;;;;4959777;29;20012;-90
2022/10/22 02:33:36;;;;;;;;;;;;;;;;;;4960841;29;19918;-87
2022/10/22 02:36:02;;;;;;;;;;;;;;;;;;4945155;29;20274;-87
2022/10/22 02:38:28;;;;;;;;;;;;;;;;;;4963542;29;20346;-86
2022/10/22 02:40:54;;;;;;;;;;;;;;;;;;4963837;29;19974;-84
2022/10/22 02:43:22;;;;;;;;;;;;;;;;;;4948389;29;19918;-85
2022/10/22 02:45:48;;;;;;;;;;;;;;;;;;4948395;29;19925;-86
2022/10/22 02:48:14;;;;;;;;;;;;;;;;;;4947067;29;19918;-90
2022/10/22 02:50:40;;;;;;;;;;;;;;;;;;4962386;29;19978;-87
2022/10/22 02:53:05;;;;;;;;;;;;;;;;;;4962120;29;19946;-85
2022/10/22 02:55:34;;;;;;;;;;;;;;;;;;4962694;29;19923;-84
2022/10/22 02:57:59;;;;;;;;;;;;;;;;;;4963031;29;19919;-84
2022/10/22 03:00:24;;;;;;;;;;;;;;;;;;4945494;29;20393;-85
2022/10/22 03:02:51;;;;;;;;;;;;;;;;;;4960678;29;19932;-84
2022/10/22 03:05:16;;;;;;;;;;;;;;;;;;4942339;29;19973;-85
2022/10/22 03:07:42;;;;;;;;;;;;;;;;;;4959417;29;19918;-84
2022/10/22 03:10:08;;;;;;;;;;;;;;;;;;4959309;29;19925;-85
2022/10/22 03:12:33;;;;;;;;;;;;;;;;;;4960030;29;19918;-85
2022/10/22 03:14:59;;;;;;;;;;;;;;;;;;4959168;29;19918;-85
2022/10/22 03:17:26;;;;;;;;;;;;;;;;;;4959642;29;20413;-87
2022/10/22 03:19:52;;;;;;;;;;;;;;;;;;4958303;29;20123;-84
2022/10/22 03:22:28;;;;;;;;;;;;;;;;;;4942652;29;20015;-85
2022/10/22 03:24:54;;;;;;;;;;;;;;;;;;4945884;29;19920;-85
2022/10/22 03:27:20;;;;;;;;;;;;;;;;;;4958082;29;20329;-84
2022/10/22 03:29:48;;;;;;;;;;;;;;;;;;4958322;29;19941;-86
2022/10/22 03:32:14;;;;;;;;;;;;;;;;;;4958862;29;19925;-85
2022/10/22 03:34:40;;;;;;;;;;;;;;;;;;4942449;29;20108;-86
2022/10/22 03:37:05;;;;;;;;;;;;;;;;;;4960319;29;20418;-87
2022/10/22 03:39:32;;;;;;;;;;;;;;;;;;4959375;29;20366;-85
2022/10/22 03:41:57;;;;;;;;;;;;;;;;;;4942471;29;19967;-88
2022/10/22 03:44:23;;;;;;;;;;;;;;;;;;4964272;29;19919;-87
2022/10/22 03:46:50;;;;;;;;;;;;;;;;;;4965752;29;19914;-85
2022/10/22 03:49:17;;;;;;;;;;;;;;;;;;4964203;29;19919;-85
2022/10/22 03:51:45;;;;;;;;;;;;;;;;;;4964185;29;20008;-84
2022/10/22 03:54:11;;;;;;;;;;;;;;;;;;4965009;29;19926;-86
2022/10/22 03:56:36;;;;;;;;;;;;;;;;;;4946347;29;19923;-84
2022/10/22 03:59:03;;;;;;;;;;;;;;;;;;4948317;29;19918;-85
2022/10/22 04:01:29;;;;;;;;;;;;;;;;;;4945043;29;19928;-85
2022/10/22 04:03:55;;;;;;;;;;;;;;;;;;4958569;29;20459;-87
2022/10/22 04:06:20;;;;;;;;;;;;;;;;;;4962102;29;19922;-89
2022/10/22 04:08:45;;;;;;;;;;;;;;;;;;4964040;29;19965;-86
2022/10/22 04:11:12;;;;;;;;;;;;;;;;;;4962455;29;20357;-88
2022/10/22 04:13:38;;;;;;;;;;;;;;;;;;4943536;29;20305;-89
2022/10/22 04:16:07;;;;;;;;;;;;;;;;;;4959192;29;19987;-91
2022/10/22 04:18:33;;;;;;;;;;;;;;;;;;4958658;29;19918;-91
2022/10/22 04:20:58;;;;;;;;;;;;;;;;;;4956838;29;19918;-88
2022/10/22 04:23:24;;;;;;;;;;;;;;;;;;4957750;29;19929;-86
2022/10/22 04:25:49;;;;;;;;;;;;;;;;;;4956097;29;20337;-87
2022/10/22 04:28:14;;;;;;;;;;;;;;;;;;4956633;29;19929;-88
2022/10/22 04:30:40;;;;;;;;;;;;;;;;;;4947698;29;19933;-90
2022/10/22 04:33:05;;;;;;;;;;;;;;;;;;4956141;29;19922;-89
2022/10/22 04:35:31;;;;;;;;;;;;;;;;;;4957574;29;20354;-89
2022/10/22 04:37:56;;;;;;;;;;;;;;;;;;4957471;29;19947;-88
2022/10/22 04:40:22;;;;;;;;;;;;;;;;;;4960778;29;19919;-88
2022/10/22 04:42:47;;;;;;;;;;;;;;;;;;4939546;29;20009;-89
2022/10/22 04:45:14;;;;;;;;;;;;;;;;;;4959139;29;19926;-88
2022/10/22 04:47:40;;;;;;;;;;;;;;;;;;4943608;29;20267;-85
2022/10/22 04:50:05;;;;;;;;;;;;;;;;;;4962309;29;19921;-87
2022/10/22 04:52:31;;;;;;;;;;;;;;;;;;4960777;29;20005;-85
2022/10/22 04:54:56;;;;;;;;;;;;;;;;;;4958396;29;19923;-90
2022/10/22 04:57:22;;;;;;;;;;;;;;;;;;4959175;29;19918;-88
2022/10/22 04:59:47;;;;;;;;;;;;;;;;;;4960952;29;20318;-87
2022/10/22 05:02:14;;;;;;;;;;;;;;;;;;4960838;29;19929;-87
2022/10/22 05:04:43;;;;;;;;;;;;;;;;;;4961861;29;19949;-87
2022/10/22 05:07:08;;;;;;;;;;;;;;;;;;4962296;29;20052;-89
2022/10/22 05:09:33;;;;;;;;;;;;;;;;;;4944299;29;20366;-87
2022/10/22 05:12:00;;;;;;;;;;;;;;;;;;4962431;29;19958;-86
2022/10/22 05:14:26;;;;;;;;;;;;;;;;;;4963087;29;19918;-86
2022/10/22 05:16:52;;;;;;;;;;;;;;;;;;4950172;29;19926;-86
2022/10/22 05:19:20;;;;;;;;;;;;;;;;;;4965445;29;20008;-85
2022/10/22 05:21:46;;;;;;;;;;;;;;;;;;4966982;29;20282;-85
2022/10/22 05:24:14;;;;;;;;;;;;;;;;;;4968082;29;19946;-86
2022/10/22 05:26:41;;;;;;;;;;;;;;;;;;4968162;29;19914;-86
2022/10/22 05:29:06;;;;;;;;;;;;;;;;;;4951821;29;19919;-85
2022/10/22 05:31:32;;;;;;;;;;;;;;;;;;4966276;29;19938;-85
2022/10/22 05:33:57;;;;;;;;;;;;;;;;;;4962766;29;20302;-85
2022/10/22 05:36:24;;;;;;;;;;;;;;;;;;4962285;29;19919;-85
2022/10/22 05:38:50;;;;;;;;;;;;;;;;;;4959688;29;19930;-85
2022/10/22 05:41:16;;;;;;;;;;;;;;;;;;4959455;29;19925;-85
2022/10/22 05:43:43;;;;;;;;;;;;;;;;;;4959720;29;19919;-84
2022/10/22 05:46:13;;;;;;;;;;;;;;;;;;4959400;29;19941;-84
2022/10/22 05:48:38;;;;;;;;;;;;;;;;;;4941590;29;19919;-84
2022/10/22 05:51:05;;;;;;;;;;;;;;;;;;4958926;29;19919;-85
2022/10/22 05:53:34;;;;;;;;;;;;;;;;;;4968402;29;19926;-86
2022/10/22 05:56:01;;;;;;;;;;;;;;;;;;4956857;29;19969;-84
2022/10/22 05:58:28;;;;;;;;;;;;;;;;;;4958659;28;19918;-84
2022/10/22 06:00:53;;;;;;;;;;;;;;;;;;4962058;29;19918;-84
2022/10/22 06:03:19;;;;;;;;;;;;;;;;;;4950635;29;19926;-84
2022/10/22 06:05:45;;;;;;;;;;;;;;;;;;4953247;29;19919;-84
2022/10/22 06:08:13;;;;;;;;;;;;;;;;;;4962470;29;19923;-85
2022/10/22 06:10:41;;;;;;;;;;;;;;;;;;4959307;29;20289;-84
2022/10/22 06:13:07;;;;;;;;;;;;;;;;;;4965738;29;19918;-87
2022/10/22 06:15:32;;;;;;;;;;;;;;;;;;4966670;29;19941;-85
2022/10/22 06:17:57;;;;;;;;;;;;;;;;;;4948503;29;19919;-86
2022/10/22 06:20:23;;;;;;;;;;;;;;;;;;4943444;29;19922;-88
2022/10/22 06:22:48;;;;;;;;;;;;;;;;;;4945585;29;19919;-85
2022/10/22 06:25:14;;;;;;;;;;;;;;;;;;4928956;29;19926;-84
2022/10/22 06:27:40;;;;;;;;;;;;;;;;;;4942880;29;19937;-89
2022/10/22 06:30:06;;;;;;;;;;;;;;;;;;4940130;29;19919;-90
2022/10/22 06:32:31;;;;;;;;;;;;;;;;;;4955053;29;19918;-86
2022/10/22 06:34:56;;;;;;;;;;;;;;;;;;4958194;29;20374;-87
2022/10/22 06:37:22;;;;;;;;;;;;;;;;;;4940774;29;19919;-84
2022/10/22 06:39:47;;;;;;;;;;;;;;;;;;4973067;28;19914;-86
2022/10/22 06:42:13;;;;;;;;;;;;;;;;;;4958743;29;19922;-85
2022/10/22 06:44:38;;;;;;;;;;;;;;;;;;4960272;29;19983;-84
2022/10/22 06:47:04;;;;;;;;;;;;;;;;;;4941975;29;19915;-85
2022/10/22 06:49:30;;;;;;;;;;;;;;;;;;4959208;29;19922;-84
2022/10/22 06:51:56;;;;;;;;;;;;;;;;;;4972394;28;19914;-86
2022/10/22 06:54:22;;;;;;;;;;;;;;;;;;4955777;29;19918;-84
2022/10/22 06:56:47;;;;;;;;;;;;;;;;;;4956240;29;20286;-84
2022/10/22 06:59:13;;;;;;;;;;;;;;;;;;4959991;29;19957;-86
2022/10/22 07:01:38;;;;;;;;;;;;;;;;;;4951589;29;20386;-86
2022/10/22 07:04:07;;;;;;;;;;;;;;;;;;4945051;29;19926;-87
2022/10/22 07:06:33;;;;;;;;;;;;;;;;;;4951200;29;20039;-88
2022/10/22 07:09:01;;;;;;;;;;;;;;;;;;4940888;29;19926;-86
2022/10/22 07:11:28;;;;;;;;;;;;;;;;;;4956625;28;19934;-85
2022/10/22 07:13:55;;;;;;;;;;;;;;;;;;4956309;29;20017;-87
2022/10/22 07:16:20;;;;;;;;;;;;;;;;;;4956775;29;19927;-88
2022/10/22 07:18:46;;;;;;;;;;;;;;;;;;4958094;29;19938;-88
2022/10/22 07:21:13;;;;;;;;;;;;;;;;;;4956505;29;19919;-86
2022/10/22 07:23:39;;;;;;;;;;;;;;;;;;4950227;29;19941;-89
2022/10/22 07:26:06;;;;;;;;;;;;;;;;;;4936709;29;20434;-88
2022/10/22 07:28:32;;;;;;;;;;;;;;;;;;4955135;29;19942;-85
2022/10/22 07:30:58;;;;;;;;;;;;;;;;;;4936380;29;19925;-85
2022/10/22 07:33:23;;;;;;;;;;;;;;;;;;4939302;29;19919;-84
2022/10/22 07:35:48;;;;;;;;;;;;;;;;;;4948464;29;19958;-89
2022/10/22 07:38:19;;;;;;;;;;;;;;;;;;4961534;29;19922;-93
2022/10/22 07:40:51;;;;;;;;;;;;;;;;;;4961827;29;19919;-93
2022/10/22 07:43:16;;;;;;;;;;;;;;;;;;4971976;28;19918;-89
2022/10/22 07:45:42;;;;;;;;;;;;;;;;;;4955434;29;20717;-88
2022/10/22 07:48:07;;;;;;;;;;;;;;;;;;4956323;29;19981;-86
2022/10/22 07:50:32;;;;;;;;;;;;;;;;;;4939815;29;19922;-85
2022/10/22 07:52:58;;;;;;;;;;;;;;;;;;4957379;29;20282;-90
2022/10/22 07:55:23;;;;;;;;;;;;;;;;;;4956689;29;19941;-84
2022/10/22 07:57:49;;;;;;;;;;;;;;;;;;4956027;29;20270;-88
2022/10/22 08:00:14;;;;;;;;;;;;;;;;;;4956573;29;19922;-89
2022/10/22 08:02:40;;;;;;;;;;;;;;;;;;4956234;29;19933;-85
2022/10/22 08:05:06;;;;;;;;;;;;;;;;;;4956727;29;19919;-88
2022/10/22 08:07:31;;;;;;;;;;;;;;;;;;4939319;29;20341;-86
2022/10/22 08:09:56;;;;;;;;;;;;;;;;;;4956139;29;19925;-87
2022/10/22 08:12:22;;;;;;;;;;;;;;;;;;4956658;29;19941;-87
2022/10/22 08:14:47;;;;;;;;;;;;;;;;;;4955586;29;19980;-85
2022/10/22 08:17:13;;;;;;;;;;;;;;;;;;4956084;29;20350;-86
2022/10/22 08:19:38;;;;;;;;;;;;;;;;;;4955539;29;20293;-86
2022/10/22 08:22:03;;;;;;;;;;;;;;;;;;4969139;28;19943;-86
2022/10/22 08:24:29;;;;;;;;;;;;;;;;;;4955313;29;20285;-87
2022/10/22 08:26:55;;;;;;;;;;;;;;;;;;4954874;29;20012;-87
2022/10/22 08:29:22;;;;;;;;;;;;;;;;;;4955643;29;20296;-86
2022/10/22 08:31:47;;;;;;;;;;;;;;;;;;4940396;29;20357;-84
2022/10/22 08:34:14;;;;;;;;;;;;;;;;;;4954628;29;19918;-86
2022/10/22 08:36:40;;;;;;;;;;;;;;;;;;4956120;29;19918;-84
2022/10/22 08:39:05;;;;;;;;;;;;;;;;;;4938638;29;20016;-85
2022/10/22 08:41:34;;;;;;;;;;;;;;;;;;4955942;29;19987;-83
2022/10/22 08:44:20;;;;;;;;;;;;;;;;;;4955886;29;19919;-84
2022/10/22 08:47:03;;;;;;;;;;;;;;;;;;4956017;29;19919;-87
2022/10/22 08:49:32;;;;;;;;;;;;;;;;;;4961213;29;20430;-85
2022/10/22 08:51:58;;;;;;;;;;;;;;;;;;4955611;29;19918;-84
2022/10/22 08:54:33;;;;;;;;;;;;;;;;;;4955579;29;19925;-83
2022/10/22 08:56:58;;;;;;;;;;;;;;;;;;4955582;29;19927;-85
2022/10/22 08:59:31;;;;;;;;;;;;;;;;;;4955915;29;19973;-84
2022/10/22 09:01:56;;;;;;;;;;;;;;;;;;4955355;29;20296;-84
2022/10/22 09:04:27;;;;;;;;;;;;;;;;;;4955476;29;19919;-83
2022/10/22 09:06:54;;;;;;;;;;;;;;;;;;4955504;29;19922;-84
2022/10/22 09:09:20;;;;;;;;;;;;;;;;;;4955720;29;19954;-83
2022/10/22 09:11:47;;;;;;;;;;;;;;;;;;4954212;29;19985;-83
2022/10/22 09:14:14;;;;;;;;;;;;;;;;;;4955351;29;20293;-85
2022/10/22 09:16:49;;;;;;;;;;;;;;;;;;4955356;29;19941;-83
2022/10/22 09:19:20;;;;;;;;;;;;;;;;;;4955556;29;19918;-83
2022/10/22 09:22:01;;;;;;;;;;;;;;;;;;4955409;29;19921;-84
2022/10/22 09:24:37;;;;;;;;;;;;;;;;;;4955753;29;19918;-84
2022/10/22 09:27:19;;;;;;;;;;;;;;;;;;4955303;29;19925;-83
2022/10/22 09:29:46;;;;;;;;;;;;;;;;;;4955397;29;19941;-84
2022/10/22 09:32:11;;;;;;;;;;;;;;;;;;4955260;29;19918;-84
2022/10/22 09:34:37;;;;;;;;;;;;;;;;;;4957790;28;20332;-83
2022/10/22 09:37:04;;;;;;;;;;;;;;;;;;4958815;29;20369;-83
2022/10/22 09:39:35;;;;;;;;;;;;;;;;;;4958809;29;19918;-84
2022/10/22 09:42:01;;;;;;;;;;;;;;;;;;4941287;29;19919;-86
2022/10/22 09:44:26;;;;;;;;;;;;;;;;;;4958730;29;19918;-85
2022/10/22 09:46:51;;;;;;;;;;;;;;;;;;4958650;29;19915;-84
2022/10/22 09:49:22;;;;;;;;;;;;;;;;;;4958407;29;19918;-85
2022/10/22 09:51:57;;;;;;;;;;;;;;;;;;4958573;29;19925;-84
2022/10/22 09:54:41;;;;;;;;;;;;;;;;;;4945677;29;20405;-84
2022/10/22 09:57:16;;;;;;;;;;;;;;;;;;4951441;29;19918;-85
2022/10/22 09:59:42;;;;;;;;;;;;;;;;;;4947039;29;19918;-85
2022/10/22 10:02:08;;;;;;;;;;;;;;;;;;4974940;29;19913;-83
2022/10/22 10:04:34;;;;;;;;;;;;;;;;;;4963278;29;19919;-84
2022/10/22 10:07:00;;;;;;;;;;;;;;;;;;4962628;29;19957;-82
2022/10/22 10:09:29;;;;;;;;;;;;;;;;;;4957978;29;19915;-84
2022/10/22 10:11:55;;;;;;;;;;;;;;;;;;4958643;29;19965;-86
2022/10/22 10:14:26;;;;;;;;;;;;;;;;;;4960007;29;20405;-84
2022/10/22 10:16:58;;;;;;;;;;;;;;;;;;4959106;29;19969;-85
2022/10/22 10:19:37;;;;;;;;;;;;;;;;;;4941393;29;19982;-84
2022/10/22 10:22:26;;;;;;;;;;;;;;;;;;4958261;29;19919;-84
2022/10/22 10:24:54;;;;;;;;;;;;;;;;;;4957871;29;20352;-85
2022/10/22 10:27:40;;;;;;;;;;;;;;;;;;4958017;29;19965;-84
2022/10/22 10:30:11;;;;;;;;;;;;;;;;;;4928513;29;19915;-84
2022/10/22 10:32:37;;;;;;;;;;;;;;;;;;4937808;29;19918;-86
2022/10/22 10:35:23;;;;;;;;;;;;;;;;;;4954615;29;19919;-86
2022/10/22 10:38:07;;;;;;;;;;;;;;;;;;4938669;29;20062;-86
2022/10/22 10:40:39;;;;;;;;;;;;;;;;;;4955705;29;19919;-86
2022/10/22 10:43:16;;;;;;;;;;;;;;;;;;4955617;29;20020;-89
2022/10/22 10:45:45;;;;;;;;;;;;;;;;;;4954845;28;19918;-87
2022/10/22 10:48:10;;;;;;;;;;;;;;;;;;4938473;29;20382;-87
2022/10/22 10:50:44;;;;;;;;;;;;;;;;;;4956273;29;19918;-86
2022/10/22 10:53:16;;;;;;;;;;;;;;;;;;4956185;29;19925;-85
2022/10/22 10:56:07;;;;;;;;;;;;;;;;;;4957494;29;19919;-86
2022/10/22 10:58:44;;;;;;;;;;;;;;;;;;4934878;29;20378;-85
2022/10/22 11:01:17;;;;;;;;;;;;;;;;;;4957145;29;20017;-86
2022/10/22 11:04:05;;;;;;;;;;;;;;;;;;4957119;29;20001;-86
2022/10/22 11:06:31;;;;;;;;;;;;;;;;;;4957371;29;19918;-88
2022/10/22 11:09:02;;;;;;;;;;;;;;;;;;4957077;29;20370;-88
2022/10/22 11:11:33;;;;;;;;;;;;;;;;;;4957305;29;19921;-85
2022/10/22 11:14:02;;;;;;;;;;;;;;;;;;4956848;29;20369;-85
2022/10/22 11:16:41;;;;;;;;;;;;;;;;;;4956936;29;19919;-87
2022/10/22 11:19:25;;;;;;;;;;;;;;;;;;4957651;29;19966;-86
2022/10/22 11:22:04;;;;;;;;;;;;;;;;;;4957070;29;19923;-85
2022/10/22 11:24:49;;;;;;;;;;;;;;;;;;4956683;29;19919;-84
2022/10/22 11:27:14;;;;;;;;;;;;;;;;;;4956689;29;19925;-86
2022/10/22 11:29:43;;;;;;;;;;;;;;;;;;4956593;29;19927;-86
2022/10/22 11:32:17;;;;;;;;;;;;;;;;;;4956611;29;19918;-85
2022/10/22 11:34:53;;;;;;;;;;;;;;;;;;4956545;29;20325;-86
2022/10/22 11:37:19;;;;;;;;;;;;;;;;;;4956906;29;19966;-86
2022/10/22 11:39:50;;;;;;;;;;;;;;;;;;4956537;29;19914;-86
2022/10/22 11:42:20;;;;;;;;;;;;;;;;;;4956477;29;19919;-85
2022/10/22 11:44:59;;;;;;;;;;;;;;;;;;4939271;29;19930;-86
2022/10/22 11:47:26;;;;;;;;;;;;;;;;;;4956442;29;19919;-88
2022/10/22 11:50:09;;;;;;;;;;;;;;;;;;4956397;29;19958;-87
2022/10/22 11:52:35;;;;;;;;;;;;;;;;;;4939089;29;19925;-85
2022/10/22 11:55:02;;;;;;;;;;;;;;;;;;4938514;29;20131;-87
2022/10/22 11:57:35;;;;;;;;;;;;;;;;;;4956441;28;19919;-86
2022/10/22 12:00:05;;;;;;;;;;;;;;;;;;4939464;29;19922;-88
2022/10/22 12:02:37;;;;;;;;;;;;;;;;;;4954920;29;19922;-87
2022/10/22 12:05:21;;;;;;;;;;;;;;;;;;4956560;29;19977;-86
2022/10/22 12:07:51;;;;;;;;;;;;;;;;;;4939012;29;20025;-88
2022/10/22 12:10:18;;;;;;;;;;;;;;;;;;4956657;29;19919;-88
2022/10/22 12:12:51;;;;;;;;;;;;;;;;;;4956692;29;20333;-88
2022/10/22 12:15:23;;;;;;;;;;;;;;;;;;4954599;29;19981;-88
2022/10/22 12:17:48;;;;;;;;;;;;;;;;;;4938963;29;19950;-86
2022/10/22 12:20:15;;;;;;;;;;;;;;;;;;4957025;29;19918;-87
2022/10/22 12:22:41;;;;;;;;;;;;;;;;;;4955795;29;20341;-88
2022/10/22 12:25:18;;;;;;;;;;;;;;;;;;4955826;29;19922;-88
2022/10/22 12:27:49;;;;;;;;;;;;;;;;;;4955735;29;19949;-88
2022/10/22 12:30:21;;;;;;;;;;;;;;;;;;4955919;29;19918;-89
2022/10/22 12:32:46;;;;;;;;;;;;;;;;;;4956005;29;20009;-85
2022/10/22 12:35:16;;;;;;;;;;;;;;;;;;4955749;29;20005;-89
2022/10/22 12:37:42;;;;;;;;;;;;;;;;;;4955771;29;19918;-88
2022/10/22 12:40:19;;;;;;;;;;;;;;;;;;4938762;29;19926;-86
2022/10/22 12:42:49;;;;;;;;;;;;;;;;;;4938605;29;19943;-88
2022/10/22 12:45:15;;;;;;;;;;;;;;;;;;4953882;29;19933;-87
2022/10/22 12:47:44;;;;;;;;;;;;;;;;;;4932767;29;19989;-87
2022/10/22 12:50:15;;;;;;;;;;;;;;;;;;4938088;29;20051;-86
2022/10/22 12:52:40;;;;;;;;;;;;;;;;;;4935948;29;20022;-86
2022/10/22 12:55:09;;;;;;;;;;;;;;;;;;4937098;29;19997;-88
2022/10/22 12:57:34;;;;;;;;;;;;;;;;;;4951708;29;20287;-87
2022/10/22 13:00:00;;;;;;;;;;;;;;;;;;4953731;29;19921;-86
2022/10/22 13:02:27;;;;;;;;;;;;;;;;;;4947728;29;19922;-87
2022/10/22 13:05:05;;;;;;;;;;;;;;;;;;4944099;29;20301;-90
2022/10/22 13:07:38;;;;;;;;;;;;;;;;;;4944771;28;19974;-86
2022/10/22 13:10:13;;;;;;;;;;;;;;;;;;4947509;29;19969;-87
2022/10/22 13:12:42;;;;;;;;;;;;;;;;;;4945409;29;19927;-86
2022/10/22 13:15:37;;;;;;;;;;;;;;;;;;4938756;29;19922;-88
2022/10/22 13:18:24;;;;;;;;;;;;;;;;;;4933225;29;20317;-86
2022/10/22 13:21:02;;;;;;;;;;;;;;;;;;4958826;29;19919;-89
2022/10/22 13:23:29;;;;;;;;;;;;;;;;;;4958897;29;19918;-86
2022/10/22 13:26:13;;;;;;;;;;;;;;;;;;4958795;29;19972;-87
2022/10/22 13:28:40;;;;;;;;;;;;;;;;;;4958723;29;20310;-87
2022/10/22 13:31:14;;;;;;;;;;;;;;;;;;4958623;29;19946;-87
2022/10/22 13:33:41;;;;;;;;;;;;;;;;;;4958480;29;19919;-87
2022/10/22 13:36:08;;;;;;;;;;;;;;;;;;4958229;29;19918;-88
2022/10/22 13:38:34;;;;;;;;;;;;;;;;;;4957317;29;19919;-87
2022/10/22 13:41:01;;;;;;;;;;;;;;;;;;4960995;29;19926;-84
2022/10/22 13:43:27;;;;;;;;;;;;;;;;;;4959361;29;19919;-84
2022/10/22 13:45:57;;;;;;;;;;;;;;;;;;4958389;29;19922;-84
2022/10/22 13:48:23;;;;;;;;;;;;;;;;;;4958246;29;20425;-84
2022/10/22 13:50:49;;;;;;;;;;;;;;;;;;4958028;29;19962;-83
2022/10/22 13:53:16;;;;;;;;;;;;;;;;;;4958098;29;19919;-84
2022/10/22 13:55:43;;;;;;;;;;;;;;;;;;4958434;29;19931;-84
2022/10/22 13:58:10;;;;;;;;;;;;;;;;;;4957880;29;20005;-83
2022/10/22 14:00:39;;;;;;;;;;;;;;;;;;4964447;29;20386;-85
2022/10/22 14:03:05;;;;;;;;;;;;;;;;;;4953875;29;19930;-82
2022/10/22 14:05:31;;;;;;;;;;;;;;;;;;4970301;29;19923;-84
2022/10/22 14:08:00;;;;;;;;;;;;;;;;;;4962475;29;19959;-83
2022/10/22 14:10:26;;;;;;;;;;;;;;;;;;4962957;29;19954;-84
2022/10/22 14:12:52;;;;;;;;;;;;;;;;;;4960027;29;19919;-88
2022/10/22 14:15:19;;;;;;;;;;;;;;;;;;4944145;29;19918;-89
2022/10/22 14:17:50;;;;;;;;;;;;;;;;;;4946250;29;20009;-91
2022/10/22 14:20:18;;;;;;;;;;;;;;;;;;4956191;28;19986;-89
2022/10/22 14:22:44;;;;;;;;;;;;;;;;;;4957851;29;19925;-87
2022/10/22 14:25:12;;;;;;;;;;;;;;;;;;4958398;29;19920;-89
2022/10/22 14:27:38;;;;;;;;;;;;;;;;;;4958645;29;20279;-89
2022/10/22 14:30:04;;;;;;;;;;;;;;;;;;4958154;29;19922;-89
2022/10/22 14:32:29;;;;;;;;;;;;;;;;;;4957275;29;19969;-87
2022/10/22 14:34:55;;;;;;;;;;;;;;;;;;4941083;29;19923;-86
2022/10/22 14:37:22;;;;;;;;;;;;;;;;;;4957652;29;20370;-88
2022/10/22 14:39:51;;;;;;;;;;;;;;;;;;4957743;29;19926;-87
2022/10/22 14:42:18;;;;;;;;;;;;;;;;;;4953636;29;19919;-85
2022/10/22 14:44:43;;;;;;;;;;;;;;;;;;4943056;29;19990;-89
2022/10/22 14:47:09;;;;;;;;;;;;;;;;;;4970741;29;19918;-85
2022/10/22 14:49:34;;;;;;;;;;;;;;;;;;4958520;29;19925;-88
2022/10/22 14:52:00;;;;;;;;;;;;;;;;;;4956939;29;19919;-89
2022/10/22 14:54:25;;;;;;;;;;;;;;;;;;4956447;29;20326;-87
2022/10/22 14:56:50;;;;;;;;;;;;;;;;;;4956567;29;20400;-87
2022/10/22 14:59:16;;;;;;;;;;;;;;;;;;4971563;28;20401;-87
2022/10/22 15:01:41;;;;;;;;;;;;;;;;;;4972017;28;19922;-88
2022/10/22 15:04:07;;;;;;;;;;;;;;;;;;4957915;29;19926;-89
2022/10/22 15:06:33;;;;;;;;;;;;;;;;;;4957036;29;20486;-86
2022/10/22 15:08:58;;;;;;;;;;;;;;;;;;4956972;29;19918;-90
2022/10/22 15:11:24;;;;;;;;;;;;;;;;;;4946902;29;19969;-88
2022/10/22 15:13:50;;;;;;;;;;;;;;;;;;4920665;29;19926;-88
2022/10/22 15:16:17;;;;;;;;;;;;;;;;;;4920031;29;19919;-87
2022/10/22 15:18:42;;;;;;;;;;;;;;;;;;4937254;29;19926;-88
2022/10/22 15:21:13;;;;;;;;;;;;;;;;;;4937137;29;19919;-85
2022/10/22 15:23:39;;;;;;;;;;;;;;;;;;4937242;29;19919;-84
2022/10/22 15:26:08;;;;;;;;;;;;;;;;;;4918997;29;20286;-87
2022/10/22 15:28:36;;;;;;;;;;;;;;;;;;4938925;29;19926;-88
2022/10/22 15:31:01;;;;;;;;;;;;;;;;;;4937516;29;19926;-86
2022/10/22 15:33:28;;;;;;;;;;;;;;;;;;4937541;29;19919;-83
2022/10/22 15:35:53;;;;;;;;;;;;;;;;;;4937436;29;19973;-88
2022/10/22 15:38:19;;;;;;;;;;;;;;;;;;4937459;29;19919;-88
2022/10/22 15:40:44;;;;;;;;;;;;;;;;;;4937287;29;19944;-88
2022/10/22 15:43:10;;;;;;;;;;;;;;;;;;4937590;29;20367;-88
2022/10/22 15:45:36;;;;;;;;;;;;;;;;;;4937455;29;19942;-90
2022/10/22 15:48:01;;;;;;;;;;;;;;;;;;4937270;29;19919;-87
2022/10/22 15:50:27;;;;;;;;;;;;;;;;;;4937515;29;20034;-89
2022/10/22 15:52:53;;;;;;;;;;;;;;;;;;4937572;29;19922;-89
2022/10/22 15:55:18;;;;;;;;;;;;;;;;;;4937163;29;19919;-89
2022/10/22 15:57:44;;;;;;;;;;;;;;;;;;4950521;29;20382;-86
2022/10/22 16:00:10;;;;;;;;;;;;;;;;;;4956207;29;19957;-89
2022/10/22 16:02:36;;;;;;;;;;;;;;;;;;4955708;29;20465;-86
2022/10/22 16:05:01;;;;;;;;;;;;;;;;;;4955722;29;19928;-89
2022/10/22 16:07:27;;;;;;;;;;;;;;;;;;4956089;29;20045;-90
2022/10/22 16:09:56;;;;;;;;;;;;;;;;;;4939846;29;19918;-87
2022/10/22 16:12:22;;;;;;;;;;;;;;;;;;4955956;29;20013;-89
2022/10/22 16:14:50;;;;;;;;;;;;;;;;;;4955823;29;19974;-89
2022/10/22 16:17:16;;;;;;;;;;;;;;;;;;4955910;29;19927;-87
2022/10/22 16:19:41;;;;;;;;;;;;;;;;;;4956084;29;19918;-90
2022/10/22 16:22:10;;;;;;;;;;;;;;;;;;4956572;29;20001;-89
2022/10/22 16:24:39;;;;;;;;;;;;;;;;;;4956619;29;19919;-89
2022/10/22 16:27:04;;;;;;;;;;;;;;;;;;4938862;29;19926;-89
2022/10/22 16:29:30;;;;;;;;;;;;;;;;;;4956040;29;19918;-90
2022/10/22 16:31:55;;;;;;;;;;;;;;;;;;4956069;29;20267;-91
2022/10/22 16:34:21;;;;;;;;;;;;;;;;;;4938563;29;20433;-90
2022/10/22 16:36:47;;;;;;;;;;;;;;;;;;4955810;29;19934;-89
2022/10/22 16:39:13;;;;;;;;;;;;;;;;;;4955748;29;19923;-92
2022/10/22 16:41:38;;;;;;;;;;;;;;;;;;4955793;29;19972;-90
2022/10/22 16:44:05;;;;;;;;;;;;;;;;;;4958056;28;20322;-88
2022/10/22 16:46:31;;;;;;;;;;;;;;;;;;4961770;29;20025;-89
2022/10/22 16:48:56;;;;;;;;;;;;;;;;;;4953171;29;20402;-87
2022/10/22 16:51:23;;;;;;;;;;;;;;;;;;4949779;29;19930;-89
2022/10/22 16:53:53;;;;;;;;;;;;;;;;;;4950970;29;20397;-91